sensor_id;sensor_type;location;lat;lon;timestamp;temperature;humidity
68578;SHT31;61668;45.388;11.784;2022-12-18T00:01:50;3.75;82.97
68578;SHT31;61668;45.388;11.784;2022-12-18T00:04:18;3.73;82.90
68578;SHT31;61668;45.388;11.784;2022-12-18T00:06:47;3.72;82.90
68578;SHT31;61668;45.388;11.784;2022-12-18T00:09:13;3.72;82.80
68578;SHT31;61668;45.388;11.784;2022-12-18T00:11:38;3.71;82.80
68578;SHT31;61668;45.388;11.784;2022-12-18T00:14:04;3.71;82.78
68578;SHT31;61668;45.388;11.784;2022-12-18T00:16:29;3.72;82.79
68578;SHT31;61668;45.388;11.784;2022-12-18T00:18:57;3.73;82.80
68578;SHT31;61668;45.388;11.784;2022-12-18T00:21:25;3.73;82.90
68578;SHT31;61668;45.388;11.784;2022-12-18T00:23:52;3.74;82.88
68578;SHT31;61668;45.388;11.784;2022-12-18T00:26:22;3.74;82.89
68578;SHT31;61668;45.388;11.784;2022-12-18T00:29:00;3.74;82.96
68578;SHT31;61668;45.388;11.784;2022-12-18T00:31:30;3.75;82.93
68578;SHT31;61668;45.388;11.784;2022-12-18T00:33:56;3.74;82.91
68578;SHT31;61668;45.388;11.784;2022-12-18T00:36:24;3.76;82.90
68578;SHT31;61668;45.388;11.784;2022-12-18T00:38:53;3.76;82.92
68578;SHT31;61668;45.388;11.784;2022-12-18T00:41:21;3.76;82.90
68578;SHT31;61668;45.388;11.784;2022-12-18T00:44:07;3.75;82.82
68578;SHT31;61668;45.388;11.784;2022-12-18T00:46:36;3.72;82.72
68578;SHT31;61668;45.388;11.784;2022-12-18T00:49:01;3.69;82.70
68578;SHT31;61668;45.388;11.784;2022-12-18T00:51:28;3.68;82.68
68578;SHT31;61668;45.388;11.784;2022-12-18T00:53:54;3.66;82.69
68578;SHT31;61668;45.388;11.784;2022-12-18T00:56:20;3.64;82.70
68578;SHT31;61668;45.388;11.784;2022-12-18T00:58:47;3.62;82.79
68578;SHT31;61668;45.388;11.784;2022-12-18T01:01:14;3.60;82.89
68578;SHT31;61668;45.388;11.784;2022-12-18T01:03:40;3.57;82.90
68578;SHT31;61668;45.388;11.784;2022-12-18T01:06:06;3.54;82.95
68578;SHT31;61668;45.388;11.784;2022-12-18T01:08:34;3.52;82.90
68578;SHT31;61668;45.388;11.784;2022-12-18T01:11:06;3.50;82.90
68578;SHT31;61668;45.388;11.784;2022-12-18T01:13:34;3.46;82.92
68578;SHT31;61668;45.388;11.784;2022-12-18T01:15:59;3.41;82.90
68578;SHT31;61668;45.388;11.784;2022-12-18T01:18:25;3.38;82.90
68578;SHT31;61668;45.388;11.784;2022-12-18T01:20:51;3.36;82.91
68578;SHT31;61668;45.388;11.784;2022-12-18T01:23:16;3.34;83.00
68578;SHT31;61668;45.388;11.784;2022-12-18T01:25:42;3.30;83.00
68578;SHT31;61668;45.388;11.784;2022-12-18T01:28:07;3.27;83.01
68578;SHT31;61668;45.388;11.784;2022-12-18T01:30:33;3.25;83.06
68578;SHT31;61668;45.388;11.784;2022-12-18T01:32:58;3.23;83.11
68578;SHT31;61668;45.388;11.784;2022-12-18T01:35:24;3.21;83.12
68578;SHT31;61668;45.388;11.784;2022-12-18T01:37:53;3.20;83.15
68578;SHT31;61668;45.388;11.784;2022-12-18T01:40:20;3.19;83.10
68578;SHT31;61668;45.388;11.784;2022-12-18T01:42:50;3.17;83.08
68578;SHT31;61668;45.388;11.784;2022-12-18T01:47:56;3.11;83.15
68578;SHT31;61668;45.388;11.784;2022-12-18T01:53:03;3.08;83.27
68578;SHT31;61668;45.388;11.784;2022-12-18T01:55:42;3.07;83.36
68578;SHT31;61668;45.388;11.784;2022-12-18T01:58:14;3.04;83.39
68578;SHT31;61668;45.388;11.784;2022-12-18T02:00:41;3.05;83.32
68578;SHT31;61668;45.388;11.784;2022-12-18T02:03:07;3.06;83.31
68578;SHT31;61668;45.388;11.784;2022-12-18T02:05:44;3.06;83.32
68578;SHT31;61668;45.388;11.784;2022-12-18T02:19:47;3.13;83.19
68578;SHT31;61668;45.388;11.784;2022-12-18T02:23:32;3.16;83.10
68578;SHT31;61668;45.388;11.784;2022-12-18T02:26:30;3.18;83.10
68578;SHT31;61668;45.388;11.784;2022-12-18T02:29:08;3.21;83.10
68578;SHT31;61668;45.388;11.784;2022-12-18T02:31:42;3.24;83.04
68578;SHT31;61668;45.388;11.784;2022-12-18T02:34:12;3.27;83.07
68578;SHT31;61668;45.388;11.784;2022-12-18T02:36:40;3.31;83.00
68578;SHT31;61668;45.388;11.784;2022-12-18T02:39:07;3.33;83.01
68578;SHT31;61668;45.388;11.784;2022-12-18T02:41:36;3.36;83.02
68578;SHT31;61668;45.388;11.784;2022-12-18T02:44:07;3.39;82.99
68578;SHT31;61668;45.388;11.784;2022-12-18T02:46:39;3.43;82.90
68578;SHT31;61668;45.388;11.784;2022-12-18T02:54:39;3.51;82.60
68578;SHT31;61668;45.388;11.784;2022-12-18T02:57:39;3.55;82.50
68578;SHT31;61668;45.388;11.784;2022-12-18T03:00:17;3.58;82.47
68578;SHT31;61668;45.388;11.784;2022-12-18T03:03:02;3.61;82.37
68578;SHT31;61668;45.388;11.784;2022-12-18T03:05:38;3.64;82.31
68578;SHT31;61668;45.388;11.784;2022-12-18T03:08:29;3.68;82.27
68578;SHT31;61668;45.388;11.784;2022-12-18T03:11:05;3.71;82.13
68578;SHT31;61668;45.388;11.784;2022-12-18T03:13:50;3.73;82.06
68578;SHT31;61668;45.388;11.784;2022-12-18T03:16:25;3.77;82.02
68578;SHT31;61668;45.388;11.784;2022-12-18T03:18:58;3.78;81.96
68578;SHT31;61668;45.388;11.784;2022-12-18T03:21:35;3.80;81.96
68578;SHT31;61668;45.388;11.784;2022-12-18T03:24:09;3.83;81.94
68578;SHT31;61668;45.388;11.784;2022-12-18T03:26:37;3.84;81.94
68578;SHT31;61668;45.388;11.784;2022-12-18T03:29:10;3.86;81.87
68578;SHT31;61668;45.388;11.784;2022-12-18T03:31:43;3.88;81.80
68578;SHT31;61668;45.388;11.784;2022-12-18T03:34:23;3.89;81.75
68578;SHT31;61668;45.388;11.784;2022-12-18T03:36:55;3.89;81.70
68578;SHT31;61668;45.388;11.784;2022-12-18T03:39:20;3.89;81.61
68578;SHT31;61668;45.388;11.784;2022-12-18T03:47:09;3.90;81.48
68578;SHT31;61668;45.388;11.784;2022-12-18T03:50:21;3.88;81.41
68578;SHT31;61668;45.388;11.784;2022-12-18T03:53:08;3.86;81.32
68578;SHT31;61668;45.388;11.784;2022-12-18T03:55:58;3.84;81.38
68578;SHT31;61668;45.388;11.784;2022-12-18T03:58:25;3.83;81.41
68578;SHT31;61668;45.388;11.784;2022-12-18T04:00:53;3.81;81.50
68578;SHT31;61668;45.388;11.784;2022-12-18T04:03:23;3.78;81.40
68578;SHT31;61668;45.388;11.784;2022-12-18T04:05:50;3.74;81.40
68578;SHT31;61668;45.388;11.784;2022-12-18T04:08:16;3.73;81.42
68578;SHT31;61668;45.388;11.784;2022-12-18T04:10:43;3.70;81.42
68578;SHT31;61668;45.388;11.784;2022-12-18T04:13:08;3.68;81.49
68578;SHT31;61668;45.388;11.784;2022-12-18T04:15:34;3.66;81.48
68578;SHT31;61668;45.388;11.784;2022-12-18T04:18:01;3.63;81.52
68578;SHT31;61668;45.388;11.784;2022-12-18T04:20:27;3.61;81.54
68578;SHT31;61668;45.388;11.784;2022-12-18T04:22:53;3.57;81.50
68578;SHT31;61668;45.388;11.784;2022-12-18T04:25:18;3.54;81.54
68578;SHT31;61668;45.388;11.784;2022-12-18T04:27:44;3.51;81.60
68578;SHT31;61668;45.388;11.784;2022-12-18T04:30:09;3.45;81.45
68578;SHT31;61668;45.388;11.784;2022-12-18T04:32:36;3.41;81.48
68578;SHT31;61668;45.388;11.784;2022-12-18T04:35:01;3.39;81.54
68578;SHT31;61668;45.388;11.784;2022-12-18T04:37:29;3.37;81.59
68578;SHT31;61668;45.388;11.784;2022-12-18T04:39:55;3.34;81.50
68578;SHT31;61668;45.388;11.784;2022-12-18T04:42:20;3.33;81.56
68578;SHT31;61668;45.388;11.784;2022-12-18T04:44:46;3.31;81.61
68578;SHT31;61668;45.388;11.784;2022-12-18T04:47:11;3.32;81.72
68578;SHT31;61668;45.388;11.784;2022-12-18T04:49:37;3.29;81.78
68578;SHT31;61668;45.388;11.784;2022-12-18T04:52:03;3.30;81.76
68578;SHT31;61668;45.388;11.784;2022-12-18T04:54:28;3.29;81.63
68578;SHT31;61668;45.388;11.784;2022-12-18T04:56:54;3.32;81.59
68578;SHT31;61668;45.388;11.784;2022-12-18T04:59:19;3.34;81.77
68578;SHT31;61668;45.388;11.784;2022-12-18T05:01:45;3.35;81.83
68578;SHT31;61668;45.388;11.784;2022-12-18T05:04:10;3.37;81.75
68578;SHT31;61668;45.388;11.784;2022-12-18T05:06:36;3.37;81.55
68578;SHT31;61668;45.388;11.784;2022-12-18T05:09:02;3.39;81.36
68578;SHT31;61668;45.388;11.784;2022-12-18T05:11:28;3.40;81.17
68578;SHT31;61668;45.388;11.784;2022-12-18T05:13:53;3.41;81.04
68578;SHT31;61668;45.388;11.784;2022-12-18T05:16:22;3.42;80.86
68578;SHT31;61668;45.388;11.784;2022-12-18T05:18:47;3.43;80.78
68578;SHT31;61668;45.388;11.784;2022-12-18T05:21:13;3.43;80.66
68578;SHT31;61668;45.388;11.784;2022-12-18T05:23:38;3.43;80.56
68578;SHT31;61668;45.388;11.784;2022-12-18T05:26:04;3.44;80.52
68578;SHT31;61668;45.388;11.784;2022-12-18T05:28:33;3.44;80.43
68578;SHT31;61668;45.388;11.784;2022-12-18T05:31:00;3.43;80.34
68578;SHT31;61668;45.388;11.784;2022-12-18T05:33:30;3.43;80.27
68578;SHT31;61668;45.388;11.784;2022-12-18T05:35:58;3.43;80.25
68578;SHT31;61668;45.388;11.784;2022-12-18T05:38:27;3.41;80.19
68578;SHT31;61668;45.388;11.784;2022-12-18T05:40:55;3.40;80.23
68578;SHT31;61668;45.388;11.784;2022-12-18T05:43:22;3.38;80.22
68578;SHT31;61668;45.388;11.784;2022-12-18T05:45:48;3.35;80.22
68578;SHT31;61668;45.388;11.784;2022-12-18T05:48:15;3.32;80.31
68578;SHT31;61668;45.388;11.784;2022-12-18T05:50:42;3.29;80.30
68578;SHT31;61668;45.388;11.784;2022-12-18T05:53:13;3.27;80.27
68578;SHT31;61668;45.388;11.784;2022-12-18T05:55:41;3.27;80.20
68578;SHT31;61668;45.388;11.784;2022-12-18T05:58:08;3.27;80.20
68578;SHT31;61668;45.388;11.784;2022-12-18T06:00:36;3.29;80.20
68578;SHT31;61668;45.388;11.784;2022-12-18T06:03:07;3.29;80.14
68578;SHT31;61668;45.388;11.784;2022-12-18T06:05:38;3.25;80.17
68578;SHT31;61668;45.388;11.784;2022-12-18T06:08:08;3.22;80.20
68578;SHT31;61668;45.388;11.784;2022-12-18T06:10:35;3.17;80.30
68578;SHT31;61668;45.388;11.784;2022-12-18T06:13:01;3.13;80.30
68578;SHT31;61668;45.388;11.784;2022-12-18T06:15:27;3.08;80.35
68578;SHT31;61668;45.388;11.784;2022-12-18T06:17:53;3.05;80.40
68578;SHT31;61668;45.388;11.784;2022-12-18T06:20:19;2.99;80.42
68578;SHT31;61668;45.388;11.784;2022-12-18T06:22:45;2.96;80.49
68578;SHT31;61668;45.388;11.784;2022-12-18T06:25:10;2.92;80.58
68578;SHT31;61668;45.388;11.784;2022-12-18T06:27:36;2.90;80.65
68578;SHT31;61668;45.388;11.784;2022-12-18T06:30:03;2.87;80.78
68578;SHT31;61668;45.388;11.784;2022-12-18T06:32:30;2.85;80.93
68578;SHT31;61668;45.388;11.784;2022-12-18T06:34:56;2.81;81.00
68578;SHT31;61668;45.388;11.784;2022-12-18T06:37:21;2.80;81.08
68578;SHT31;61668;45.388;11.784;2022-12-18T06:39:51;2.78;81.10
68578;SHT31;61668;45.388;11.784;2022-12-18T06:42:18;2.77;81.03
68578;SHT31;61668;45.388;11.784;2022-12-18T06:44:43;2.76;81.14
68578;SHT31;61668;45.388;11.784;2022-12-18T06:47:09;2.75;81.29
68578;SHT31;61668;45.388;11.784;2022-12-18T06:49:34;2.73;81.30
68578;SHT31;61668;45.388;11.784;2022-12-18T06:52:00;2.71;81.26
68578;SHT31;61668;45.388;11.784;2022-12-18T06:54:26;2.69;81.32
68578;SHT31;61668;45.388;11.784;2022-12-18T06:56:51;2.65;81.24
68578;SHT31;61668;45.388;11.784;2022-12-18T06:59:17;2.61;81.20
68578;SHT31;61668;45.388;11.784;2022-12-18T07:01:42;2.59;81.21
68578;SHT31;61668;45.388;11.784;2022-12-18T07:04:08;2.56;81.21
68578;SHT31;61668;45.388;11.784;2022-12-18T07:06:33;2.52;81.20
68578;SHT31;61668;45.388;11.784;2022-12-18T07:08:59;2.51;81.30
68578;SHT31;61668;45.388;11.784;2022-12-18T07:11:25;2.50;81.34
68578;SHT31;61668;45.388;11.784;2022-12-18T07:13:51;2.48;81.45
68578;SHT31;61668;45.388;11.784;2022-12-18T07:16:18;2.48;81.50
68578;SHT31;61668;45.388;11.784;2022-12-18T07:18:45;2.47;81.51
68578;SHT31;61668;45.388;11.784;2022-12-18T07:21:14;2.49;81.60
68578;SHT31;61668;45.388;11.784;2022-12-18T07:23:42;2.50;81.63
68578;SHT31;61668;45.388;11.784;2022-12-18T07:26:11;2.50;81.62
68578;SHT31;61668;45.388;11.784;2022-12-18T07:28:39;2.53;81.61
68578;SHT31;61668;45.388;11.784;2022-12-18T07:31:06;2.54;81.59
68578;SHT31;61668;45.388;11.784;2022-12-18T07:33:36;2.58;81.51
68578;SHT31;61668;45.388;11.784;2022-12-18T07:36:02;2.60;81.61
68578;SHT31;61668;45.388;11.784;2022-12-18T07:38:30;2.63;81.58
68578;SHT31;61668;45.388;11.784;2022-12-18T07:41:01;2.66;81.52
68578;SHT31;61668;45.388;11.784;2022-12-18T07:43:28;2.70;81.46
68578;SHT31;61668;45.388;11.784;2022-12-18T07:45:53;2.75;81.40
68578;SHT31;61668;45.388;11.784;2022-12-18T07:48:19;2.85;81.32
68578;SHT31;61668;45.388;11.784;2022-12-18T07:50:45;2.93;81.12
68578;SHT31;61668;45.388;11.784;2022-12-18T07:53:10;3.03;81.09
68578;SHT31;61668;45.388;11.784;2022-12-18T07:55:36;3.15;80.99
68578;SHT31;61668;45.388;11.784;2022-12-18T07:58:02;3.25;80.84
68578;SHT31;61668;45.388;11.784;2022-12-18T08:00:29;3.32;80.68
68578;SHT31;61668;45.388;11.784;2022-12-18T08:02:56;3.40;80.59
68578;SHT31;61668;45.388;11.784;2022-12-18T08:05:22;3.48;80.42
68578;SHT31;61668;45.388;11.784;2022-12-18T08:07:48;3.53;80.36
68578;SHT31;61668;45.388;11.784;2022-12-18T08:10:14;3.63;80.27
68578;SHT31;61668;45.388;11.784;2022-12-18T08:12:40;3.81;80.10
68578;SHT31;61668;45.388;11.784;2022-12-18T08:15:05;4.03;79.85
68578;SHT31;61668;45.388;11.784;2022-12-18T08:17:32;4.28;79.43
68578;SHT31;61668;45.388;11.784;2022-12-18T08:19:57;4.55;79.01
68578;SHT31;61668;45.388;11.784;2022-12-18T08:22:23;4.83;78.60
68578;SHT31;61668;45.388;11.784;2022-12-18T08:24:49;5.08;78.19
68578;SHT31;61668;45.388;11.784;2022-12-18T08:27:14;5.32;77.79
68578;SHT31;61668;45.388;11.784;2022-12-18T08:29:40;5.52;77.24
68578;SHT31;61668;45.388;11.784;2022-12-18T08:32:08;5.75;76.83
68578;SHT31;61668;45.388;11.784;2022-12-18T08:34:34;6.00;76.34
68578;SHT31;61668;45.388;11.784;2022-12-18T08:37:00;6.18;75.94
68578;SHT31;61668;45.388;11.784;2022-12-18T08:39:25;6.27;75.58
68578;SHT31;61668;45.388;11.784;2022-12-18T08:41:51;6.30;74.92
68578;SHT31;61668;45.388;11.784;2022-12-18T08:44:35;6.30;74.65
68578;SHT31;61668;45.388;11.784;2022-12-18T08:47:06;6.30;74.33
68578;SHT31;61668;45.388;11.784;2022-12-18T08:49:33;6.33;74.15
68578;SHT31;61668;45.388;11.784;2022-12-18T08:52:00;6.49;73.94
68578;SHT31;61668;45.388;11.784;2022-12-18T08:54:28;6.71;73.47
68578;SHT31;61668;45.388;11.784;2022-12-18T08:56:54;6.94;72.74
68578;SHT31;61668;45.388;11.784;2022-12-18T08:59:20;7.18;72.52
68578;SHT31;61668;45.388;11.784;2022-12-18T09:01:45;7.43;71.96
68578;SHT31;61668;45.388;11.784;2022-12-18T09:04:12;7.70;71.42
68578;SHT31;61668;45.388;11.784;2022-12-18T09:06:39;7.92;70.89
68578;SHT31;61668;45.388;11.784;2022-12-18T09:09:05;8.17;70.58
68578;SHT31;61668;45.388;11.784;2022-12-18T09:11:31;8.42;70.00
68578;SHT31;61668;45.388;11.784;2022-12-18T09:13:59;8.67;69.04
68578;SHT31;61668;45.388;11.784;2022-12-18T09:16:26;8.89;68.47
68578;SHT31;61668;45.388;11.784;2022-12-18T09:18:57;9.08;67.70
68578;SHT31;61668;45.388;11.784;2022-12-18T09:21:28;9.27;67.30
68578;SHT31;61668;45.388;11.784;2022-12-18T09:23:56;9.43;66.52
68578;SHT31;61668;45.388;11.784;2022-12-18T09:26:22;9.56;65.92
68578;SHT31;61668;45.388;11.784;2022-12-18T09:28:50;9.73;65.93
68578;SHT31;61668;45.388;11.784;2022-12-18T09:31:16;9.90;65.43
68578;SHT31;61668;45.388;11.784;2022-12-18T09:33:44;10.07;64.25
68578;SHT31;61668;45.388;11.784;2022-12-18T09:36:11;10.20;63.19
68578;SHT31;61668;45.388;11.784;2022-12-18T09:38:40;10.31;62.45
68578;SHT31;61668;45.388;11.784;2022-12-18T09:44:15;10.34;62.09
68578;SHT31;61668;45.388;11.784;2022-12-18T09:46:47;10.27;62.27
68578;SHT31;61668;45.388;11.784;2022-12-18T09:49:37;10.20;62.43
68578;SHT31;61668;45.388;11.784;2022-12-18T09:52:09;10.10;62.46
68578;SHT31;61668;45.388;11.784;2022-12-18T09:54:44;9.97;62.38
68578;SHT31;61668;45.388;11.784;2022-12-18T09:57:23;9.82;62.59
68578;SHT31;61668;45.388;11.784;2022-12-18T09:59:59;9.69;62.74
68578;SHT31;61668;45.388;11.784;2022-12-18T10:02:34;9.54;62.18
68578;SHT31;61668;45.388;11.784;2022-12-18T10:12:56;8.94;61.34
68578;SHT31;61668;45.388;11.784;2022-12-18T10:21:09;8.44;62.34
68578;SHT31;61668;45.388;11.784;2022-12-18T10:26:18;8.23;62.86
68578;SHT31;61668;45.388;11.784;2022-12-18T10:28:44;8.17;63.06
68578;SHT31;61668;45.388;11.784;2022-12-18T10:31:13;8.10;63.33
68578;SHT31;61668;45.388;11.784;2022-12-18T10:33:43;8.03;63.39
68578;SHT31;61668;45.388;11.784;2022-12-18T10:36:09;7.97;63.35
68578;SHT31;61668;45.388;11.784;2022-12-18T10:38:35;7.91;63.40
68578;SHT31;61668;45.388;11.784;2022-12-18T10:41:02;7.87;64.06
68578;SHT31;61668;45.388;11.784;2022-12-18T10:43:46;7.84;63.84
68578;SHT31;61668;45.388;11.784;2022-12-18T10:48:56;7.82;63.77
68578;SHT31;61668;45.388;11.784;2022-12-18T10:51:35;7.84;64.15
68578;SHT31;61668;45.388;11.784;2022-12-18T10:54:06;7.86;64.20
68578;SHT31;61668;45.388;11.784;2022-12-18T10:56:44;7.85;64.16
68578;SHT31;61668;45.388;11.784;2022-12-18T10:59:11;7.85;64.22
68578;SHT31;61668;45.388;11.784;2022-12-18T11:01:53;7.85;64.43
68578;SHT31;61668;45.388;11.784;2022-12-18T11:04:24;7.84;64.34
68578;SHT31;61668;45.388;11.784;2022-12-18T11:06:56;7.83;64.29
68578;SHT31;61668;45.388;11.784;2022-12-18T11:09:34;7.82;64.62
68578;SHT31;61668;45.388;11.784;2022-12-18T11:12:02;7.85;64.88
68578;SHT31;61668;45.388;11.784;2022-12-18T11:14:52;7.91;64.67
68578;SHT31;61668;45.388;11.784;2022-12-18T11:17:31;7.97;64.62
68578;SHT31;61668;45.388;11.784;2022-12-18T11:20:06;8.01;65.01
68578;SHT31;61668;45.388;11.784;2022-12-18T11:23:15;8.05;64.73
68578;SHT31;61668;45.388;11.784;2022-12-18T11:25:41;8.07;64.77
68578;SHT31;61668;45.388;11.784;2022-12-18T11:34:01;8.15;64.64
68578;SHT31;61668;45.388;11.784;2022-12-18T11:36:32;8.17;64.80
68578;SHT31;61668;45.388;11.784;2022-12-18T11:39:08;8.21;64.17
68578;SHT31;61668;45.388;11.784;2022-12-18T11:42:20;8.22;63.79
68578;SHT31;61668;45.388;11.784;2022-12-18T11:50:59;8.24;63.55
68578;SHT31;61668;45.388;11.784;2022-12-18T11:53:20;8.24;63.34
68578;SHT31;61668;45.388;11.784;2022-12-18T11:58:28;8.24;62.95
68578;SHT31;61668;45.388;11.784;2022-12-18T12:13:11;8.32;62.78
68578;SHT31;61668;45.388;11.784;2022-12-18T12:21:40;8.37;62.78
68578;SHT31;61668;45.388;11.784;2022-12-18T12:35:18;8.40;62.13
68578;SHT31;61668;45.388;11.784;2022-12-18T12:38:19;8.41;62.29
68578;SHT31;61668;45.388;11.784;2022-12-18T12:40:58;8.41;61.68
68578;SHT31;61668;45.388;11.784;2022-12-18T12:46:10;8.40;61.40
68578;SHT31;61668;45.388;11.784;2022-12-18T12:53:54;8.39;61.47
68578;SHT31;61668;45.388;11.784;2022-12-18T12:56:22;8.39;60.83
68578;SHT31;61668;45.388;11.784;2022-12-18T12:59:04;8.40;60.41
68578;SHT31;61668;45.388;11.784;2022-12-18T13:02:29;8.40;60.58
68578;SHT31;61668;45.388;11.784;2022-12-18T13:08:28;8.40;60.68
68578;SHT31;61668;45.388;11.784;2022-12-18T13:10:59;8.41;60.51
68578;SHT31;61668;45.388;11.784;2022-12-18T13:13:51;8.44;60.30
68578;SHT31;61668;45.388;11.784;2022-12-18T13:16:21;8.46;60.49
68578;SHT31;61668;45.388;11.784;2022-12-18T13:18:56;8.47;60.33
68578;SHT31;61668;45.388;11.784;2022-12-18T13:23:54;8.49;60.38
68578;SHT31;61668;45.388;11.784;2022-12-18T13:31:14;8.49;60.63
68578;SHT31;61668;45.388;11.784;2022-12-18T13:34:15;8.49;60.81
68578;SHT31;61668;45.388;11.784;2022-12-18T13:36:45;8.48;60.78
68578;SHT31;61668;45.388;11.784;2022-12-18T13:41:43;8.47;60.24
68578;SHT31;61668;45.388;11.784;2022-12-18T13:46:59;8.42;60.23
68578;SHT31;61668;45.388;11.784;2022-12-18T13:49:40;8.41;60.10
68578;SHT31;61668;45.388;11.784;2022-12-18T13:52:19;8.39;60.11
68578;SHT31;61668;45.388;11.784;2022-12-18T13:54:53;8.35;59.98
68578;SHT31;61668;45.388;11.784;2022-12-18T14:00:16;8.31;60.35
68578;SHT31;61668;45.388;11.784;2022-12-18T14:02:47;8.29;60.73
68578;SHT31;61668;45.388;11.784;2022-12-18T14:05:28;8.26;61.48
68578;SHT31;61668;45.388;11.784;2022-12-18T14:08:01;8.26;61.14
68578;SHT31;61668;45.388;11.784;2022-12-18T14:10:31;8.27;61.24
68578;SHT31;61668;45.388;11.784;2022-12-18T14:12:58;8.25;60.84
68578;SHT31;61668;45.388;11.784;2022-12-18T14:15:32;8.24;60.99
68578;SHT31;61668;45.388;11.784;2022-12-18T14:18:01;8.23;61.18
68578;SHT31;61668;45.388;11.784;2022-12-18T14:20:33;8.21;61.19
68578;SHT31;61668;45.388;11.784;2022-12-18T14:22:59;8.19;61.22
68578;SHT31;61668;45.388;11.784;2022-12-18T14:25:26;8.18;61.42
68578;SHT31;61668;45.388;11.784;2022-12-18T14:28:02;8.16;61.52
68578;SHT31;61668;45.388;11.784;2022-12-18T14:30:35;8.13;61.81
68578;SHT31;61668;45.388;11.784;2022-12-18T14:33:13;8.09;61.92
68578;SHT31;61668;45.388;11.784;2022-12-18T14:35:56;8.05;62.38
68578;SHT31;61668;45.388;11.784;2022-12-18T14:38:34;8.01;62.15
68578;SHT31;61668;45.388;11.784;2022-12-18T14:43:39;7.93;62.19
68578;SHT31;61668;45.388;11.784;2022-12-18T14:49:16;7.84;62.71
68578;SHT31;61668;45.388;11.784;2022-12-18T14:52:00;7.79;63.38
68578;SHT31;61668;45.388;11.784;2022-12-18T14:54:30;7.72;64.53
68578;SHT31;61668;45.388;11.784;2022-12-18T14:57:01;7.65;65.00
68578;SHT31;61668;45.388;11.784;2022-12-18T14:59:31;7.61;64.53
68578;SHT31;61668;45.388;11.784;2022-12-18T15:05:01;7.50;65.30
68578;SHT31;61668;45.388;11.784;2022-12-18T15:07:40;7.42;66.08
68578;SHT31;61668;45.388;11.784;2022-12-18T15:10:19;7.36;66.47
68578;SHT31;61668;45.388;11.784;2022-12-18T15:20:43;7.11;67.79
68578;SHT31;61668;45.388;11.784;2022-12-18T15:25:58;6.99;68.19
68578;SHT31;61668;45.388;11.784;2022-12-18T15:28:27;6.94;68.56
68578;SHT31;61668;45.388;11.784;2022-12-18T15:31:29;6.89;69.12
68578;SHT31;61668;45.388;11.784;2022-12-18T15:36:33;6.78;69.72
68578;SHT31;61668;45.388;11.784;2022-12-18T15:39:01;6.74;70.03
68578;SHT31;61668;45.388;11.784;2022-12-18T15:41:30;6.68;70.01
68578;SHT31;61668;45.388;11.784;2022-12-18T15:43:58;6.64;70.10
68578;SHT31;61668;45.388;11.784;2022-12-18T15:46:24;6.57;70.35
68578;SHT31;61668;45.388;11.784;2022-12-18T15:48:55;6.52;70.58
68578;SHT31;61668;45.388;11.784;2022-12-18T15:54:01;6.39;70.84
68578;SHT31;61668;45.388;11.784;2022-12-18T15:56:29;6.32;70.83
68578;SHT31;61668;45.388;11.784;2022-12-18T15:59:16;6.25;71.05
68578;SHT31;61668;45.388;11.784;2022-12-18T16:01:45;6.18;71.18
68578;SHT31;61668;45.388;11.784;2022-12-18T16:04:16;6.12;71.23
68578;SHT31;61668;45.388;11.784;2022-12-18T16:06:47;6.04;71.63
68578;SHT31;61668;45.388;11.784;2022-12-18T16:09:16;5.98;72.07
68578;SHT31;61668;45.388;11.784;2022-12-18T16:11:43;5.92;72.05
68578;SHT31;61668;45.388;11.784;2022-12-18T16:17:01;5.80;72.04
68578;SHT31;61668;45.388;11.784;2022-12-18T16:19:30;5.74;72.34
68578;SHT31;61668;45.388;11.784;2022-12-18T16:21:57;5.69;72.56
68578;SHT31;61668;45.388;11.784;2022-12-18T16:24:24;5.63;72.75
68578;SHT31;61668;45.388;11.784;2022-12-18T16:26:57;5.57;73.05
68578;SHT31;61668;45.388;11.784;2022-12-18T16:29:24;5.50;73.32
68578;SHT31;61668;45.388;11.784;2022-12-18T16:31:59;5.43;73.46
68578;SHT31;61668;45.388;11.784;2022-12-18T16:34:26;5.38;73.67
68578;SHT31;61668;45.388;11.784;2022-12-18T16:36:55;5.33;73.95
68578;SHT31;61668;45.388;11.784;2022-12-18T16:39:26;5.29;74.13
68578;SHT31;61668;45.388;11.784;2022-12-18T16:41:52;5.24;74.28
68578;SHT31;61668;45.388;11.784;2022-12-18T16:44:19;5.19;74.40
68578;SHT31;61668;45.388;11.784;2022-12-18T16:46:45;5.14;74.32
68578;SHT31;61668;45.388;11.784;2022-12-18T16:49:15;5.10;74.19
68578;SHT31;61668;45.388;11.784;2022-12-18T16:51:43;5.04;74.28
68578;SHT31;61668;45.388;11.784;2022-12-18T16:54:10;4.99;74.65
68578;SHT31;61668;45.388;11.784;2022-12-18T16:56:36;4.94;74.92
68578;SHT31;61668;45.388;11.784;2022-12-18T16:59:03;4.89;74.83
68578;SHT31;61668;45.388;11.784;2022-12-18T17:01:30;4.86;74.88
68578;SHT31;61668;45.388;11.784;2022-12-18T17:03:58;4.81;75.02
68578;SHT31;61668;45.388;11.784;2022-12-18T17:06:28;4.77;75.20
68578;SHT31;61668;45.388;11.784;2022-12-18T17:08:56;4.71;75.36
68578;SHT31;61668;45.388;11.784;2022-12-18T17:11:23;4.66;75.56
68578;SHT31;61668;45.388;11.784;2022-12-18T17:13:52;4.59;75.72
68578;SHT31;61668;45.388;11.784;2022-12-18T17:16:17;4.55;75.82
68578;SHT31;61668;45.388;11.784;2022-12-18T17:18:43;4.52;76.02
68578;SHT31;61668;45.388;11.784;2022-12-18T17:21:09;4.48;76.17
68578;SHT31;61668;45.388;11.784;2022-12-18T17:23:38;4.44;76.25
68578;SHT31;61668;45.388;11.784;2022-12-18T17:26:05;4.41;76.24
68578;SHT31;61668;45.388;11.784;2022-12-18T17:28:32;4.37;76.32
68578;SHT31;61668;45.388;11.784;2022-12-18T17:30:59;4.34;76.42
68578;SHT31;61668;45.388;11.784;2022-12-18T17:33:25;4.29;76.61
68578;SHT31;61668;45.388;11.784;2022-12-18T17:35:51;4.25;76.91
68578;SHT31;61668;45.388;11.784;2022-12-18T17:38:17;4.22;77.00
68578;SHT31;61668;45.388;11.784;2022-12-18T17:40:42;4.20;76.93
68578;SHT31;61668;45.388;11.784;2022-12-18T17:43:09;4.16;76.99
68578;SHT31;61668;45.388;11.784;2022-12-18T17:45:36;4.13;77.17
68578;SHT31;61668;45.388;11.784;2022-12-18T17:48:04;4.09;77.27
68578;SHT31;61668;45.388;11.784;2022-12-18T17:50:32;4.05;77.43
68578;SHT31;61668;45.388;11.784;2022-12-18T17:52:58;4.01;77.60
68578;SHT31;61668;45.388;11.784;2022-12-18T17:55:25;3.99;77.57
68578;SHT31;61668;45.388;11.784;2022-12-18T17:57:52;3.97;77.70
68578;SHT31;61668;45.388;11.784;2022-12-18T18:00:18;3.94;77.75
68578;SHT31;61668;45.388;11.784;2022-12-18T18:02:44;3.92;77.63
68578;SHT31;61668;45.388;11.784;2022-12-18T18:05:10;3.89;77.85
68578;SHT31;61668;45.388;11.784;2022-12-18T18:07:38;3.86;78.00
68578;SHT31;61668;45.388;11.784;2022-12-18T18:10:06;3.84;78.05
68578;SHT31;61668;45.388;11.784;2022-12-18T18:12:32;3.80;77.99
68578;SHT31;61668;45.388;11.784;2022-12-18T18:15:17;3.77;78.05
68578;SHT31;61668;45.388;11.784;2022-12-18T18:17:43;3.74;78.28